sensor_id;sensor_type;location;lat;lon;timestamp;pressure;altitude;pressure_sealevel;temperature;humidity
50394;BME280;36308;46.312;25.288;2023-07-30T00:02:14;95908.31;;;17.40;65.92
50394;BME280;36308;46.312;25.288;2023-07-30T00:04:40;95912.44;;;17.37;65.86
50394;BME280;36308;46.312;25.288;2023-07-30T00:07:05;95914.97;;;17.33;65.97
50394;BME280;36308;46.312;25.288;2023-07-30T00:09:31;95915.56;;;17.30;66.12
50394;BME280;36308;46.312;25.288;2023-07-30T00:11:56;95913.16;;;17.29;66.37
50394;BME280;36308;46.312;25.288;2023-07-30T00:14:22;95903.69;;;17.26;66.15
50394;BME280;36308;46.312;25.288;2023-07-30T00:16:47;95908.94;;;17.23;66.10
50394;BME280;36308;46.312;25.288;2023-07-30T00:19:13;95904.09;;;17.20;66.05
50394;BME280;36308;46.312;25.288;2023-07-30T00:21:38;95911.75;;;17.17;66.37
50394;BME280;36308;46.312;25.288;2023-07-30T00:24:04;95908.53;;;17.15;66.11
50394;BME280;36308;46.312;25.288;2023-07-30T00:26:29;95902.88;;;17.12;66.33
50394;BME280;36308;46.312;25.288;2023-07-30T00:28:55;95910.53;;;17.10;66.37
50394;BME280;36308;46.312;25.288;2023-07-30T00:31:20;95903.50;;;17.09;66.28
50394;BME280;36308;46.312;25.288;2023-07-30T00:33:46;95913.34;;;17.05;66.32
50394;BME280;36308;46.312;25.288;2023-07-30T00:36:12;95912.56;;;17.04;66.42
50394;BME280;36308;46.312;25.288;2023-07-30T00:38:37;95916.19;;;17.00;66.54
50394;BME280;36308;46.312;25.288;2023-07-30T00:41:02;95913.75;;;16.98;66.38
50394;BME280;36308;46.312;25.288;2023-07-30T00:43:28;95912.47;;;16.95;66.33
50394;BME280;36308;46.312;25.288;2023-07-30T00:45:54;95910.03;;;16.94;66.42
50394;BME280;36308;46.312;25.288;2023-07-30T00:48:19;95906.03;;;16.91;66.67
50394;BME280;36308;46.312;25.288;2023-07-30T00:50:45;95910.94;;;16.89;66.48
50394;BME280;36308;46.312;25.288;2023-07-30T00:53:13;95914.25;;;16.86;66.93
50394;BME280;36308;46.312;25.288;2023-07-30T00:55:39;95909.44;;;16.83;66.69
50394;BME280;36308;46.312;25.288;2023-07-30T00:58:05;95914.38;;;16.81;66.39
50394;BME280;36308;46.312;25.288;2023-07-30T01:00:31;95920.34;;;16.78;66.75
50394;BME280;36308;46.312;25.288;2023-07-30T01:02:57;95923.69;;;16.75;66.82
50394;BME280;36308;46.312;25.288;2023-07-30T01:05:23;95909.88;;;16.71;66.98
50394;BME280;36308;46.312;25.288;2023-07-30T01:07:49;95912.09;;;16.69;66.42
50394;BME280;36308;46.312;25.288;2023-07-30T01:10:14;95904.25;;;16.68;66.87
50394;BME280;36308;46.312;25.288;2023-07-30T01:12:42;95909.47;;;16.64;66.65
50394;BME280;36308;46.312;25.288;2023-07-30T01:15:09;95914.41;;;16.62;66.88
50394;BME280;36308;46.312;25.288;2023-07-30T01:17:35;95913.91;;;16.60;67.10
50394;BME280;36308;46.312;25.288;2023-07-30T01:20:01;95909.84;;;16.57;67.15
50394;BME280;36308;46.312;25.288;2023-07-30T01:22:27;95906.63;;;16.55;67.12
50394;BME280;36308;46.312;25.288;2023-07-30T01:24:52;95900.69;;;16.53;67.17
50394;BME280;36308;46.312;25.288;2023-07-30T01:27:27;95909.16;;;16.52;67.40
50394;BME280;36308;46.312;25.288;2023-07-30T01:30:07;95902.41;;;16.49;67.38
50394;BME280;36308;46.312;25.288;2023-07-30T01:32:35;95905.44;;;16.48;67.34
50394;BME280;36308;46.312;25.288;2023-07-30T01:35:02;95907.63;;;16.46;67.34
50394;BME280;36308;46.312;25.288;2023-07-30T01:37:29;95910.66;;;16.44;67.13
50394;BME280;36308;46.312;25.288;2023-07-30T01:39:56;95910.13;;;16.42;67.62
50394;BME280;36308;46.312;25.288;2023-07-30T01:42:21;95908.50;;;16.41;67.53
50394;BME280;36308;46.312;25.288;2023-07-30T01:44:47;95903.69;;;16.38;67.45
50394;BME280;36308;46.312;25.288;2023-07-30T01:47:12;95902.06;;;16.37;67.48
50394;BME280;36308;46.312;25.288;2023-07-30T01:49:38;95900.75;;;16.34;67.77
50394;BME280;36308;46.312;25.288;2023-07-30T01:52:03;95901.06;;;16.33;67.37
50394;BME280;36308;46.312;25.288;2023-07-30T01:54:29;95898.94;;;16.30;67.25
50394;BME280;36308;46.312;25.288;2023-07-30T01:56:54;95896.22;;;16.30;67.41
50394;BME280;36308;46.312;25.288;2023-07-30T01:59:20;95903.88;;;16.28;67.43
50394;BME280;36308;46.312;25.288;2023-07-30T02:01:45;95899.53;;;16.27;67.27
50394;BME280;36308;46.312;25.288;2023-07-30T02:04:11;95905.56;;;16.24;67.32
50394;BME280;36308;46.312;25.288;2023-07-30T02:06:36;95896.91;;;16.22;67.59
50394;BME280;36308;46.312;25.288;2023-07-30T02:09:02;95899.13;;;16.20;67.34
50394;BME280;36308;46.312;25.288;2023-07-30T02:11:27;95895.91;;;16.17;67.47
50394;BME280;36308;46.312;25.288;2023-07-30T02:13:53;95904.31;;;16.16;67.59
50394;BME280;36308;46.312;25.288;2023-07-30T02:16:19;95896.50;;;16.14;67.51
50394;BME280;36308;46.312;25.288;2023-07-30T02:18:44;95897.88;;;16.12;67.45
50394;BME280;36308;46.312;25.288;2023-07-30T02:21:10;95901.72;;;16.11;67.72
50394;BME280;36308;46.312;25.288;2023-07-30T02:23:35;95913.13;;;16.08;67.51
50394;BME280;36308;46.312;25.288;2023-07-30T02:26:01;95910.75;;;16.06;67.58
50394;BME280;36308;46.312;25.288;2023-07-30T02:28:26;95915.66;;;16.04;67.52
50394;BME280;36308;46.312;25.288;2023-07-30T02:30:52;95916.22;;;16.01;67.73
50394;BME280;36308;46.312;25.288;2023-07-30T02:33:17;95915.72;;;15.99;67.88
50394;BME280;36308;46.312;25.288;2023-07-30T02:35:43;95912.50;;;15.97;67.54
50394;BME280;36308;46.312;25.288;2023-07-30T02:38:09;95915.50;;;15.95;67.55
50394;BME280;36308;46.312;25.288;2023-07-30T02:40:35;95918.50;;;15.94;67.89
50394;BME280;36308;46.312;25.288;2023-07-30T02:43:00;95913.38;;;15.92;67.94
50394;BME280;36308;46.312;25.288;2023-07-30T02:45:26;95915.88;;;15.89;67.77
50394;BME280;36308;46.312;25.288;2023-07-30T02:47:51;95919.69;;;15.88;67.88
50394;BME280;36308;46.312;25.288;2023-07-30T02:50:16;95914.84;;;15.85;67.91
50394;BME280;36308;46.312;25.288;2023-07-30T02:52:42;95920.88;;;15.82;67.91
50394;BME280;36308;46.312;25.288;2023-07-30T02:55:08;95915.44;;;15.82;67.98
50394;BME280;36308;46.312;25.288;2023-07-30T02:57:33;95917.66;;;15.80;67.81
50394;BME280;36308;46.312;25.288;2023-07-30T02:59:59;95910.06;;;15.76;68.41
50394;BME280;36308;46.312;25.288;2023-07-30T03:02:24;95912.00;;;15.76;68.11
50394;BME280;36308;46.312;25.288;2023-07-30T03:04:50;95916.63;;;15.75;68.26
50394;BME280;36308;46.312;25.288;2023-07-30T03:07:15;95923.44;;;15.73;68.37
50394;BME280;36308;46.312;25.288;2023-07-30T03:09:41;95928.84;;;15.73;68.58
50394;BME280;36308;46.312;25.288;2023-07-30T03:12:06;95926.41;;;15.71;68.77
50394;BME280;36308;46.312;25.288;2023-07-30T03:14:32;95919.34;;;15.70;68.47
50394;BME280;36308;46.312;25.288;2023-07-30T03:16:58;95926.69;;;15.70;68.80
50394;BME280;36308;46.312;25.288;2023-07-30T03:19:23;95920.47;;;15.69;68.96
50394;BME280;36308;46.312;25.288;2023-07-30T03:21:48;95928.59;;;15.69;68.67
50394;BME280;36308;46.312;25.288;2023-07-30T03:24:14;95924.25;;;15.68;68.71
50394;BME280;36308;46.312;25.288;2023-07-30T03:26:39;95914.53;;;15.67;68.70
50394;BME280;36308;46.312;25.288;2023-07-30T03:29:05;95918.84;;;15.68;68.79
50394;BME280;36308;46.312;25.288;2023-07-30T03:31:30;95923.47;;;15.68;68.83
50394;BME280;36308;46.312;25.288;2023-07-30T03:33:56;95922.66;;;15.67;69.04
50394;BME280;36308;46.312;25.288;2023-07-30T03:36:21;95921.56;;;15.68;68.79
50394;BME280;36308;46.312;25.288;2023-07-30T03:38:47;95914.53;;;15.67;68.79
50394;BME280;36308;46.312;25.288;2023-07-30T03:41:12;95916.13;;;15.68;69.27
50394;BME280;36308;46.312;25.288;2023-07-30T03:43:38;95909.91;;;15.68;69.27
50394;BME280;36308;46.312;25.288;2023-07-30T03:46:03;95922.38;;;15.69;68.97
50394;BME280;36308;46.312;25.288;2023-07-30T03:48:29;95916.13;;;15.68;69.12
50394;BME280;36308;46.312;25.288;2023-07-30T03:50:55;95907.19;;;15.68;69.03
50394;BME280;36308;46.312;25.288;2023-07-30T03:53:21;95905.28;;;15.68;69.18
50394;BME280;36308;46.312;25.288;2023-07-30T03:55:47;95916.97;;;15.69;69.43
50394;BME280;36308;46.312;25.288;2023-07-30T03:58:13;95918.84;;;15.68;69.24
50394;BME280;36308;46.312;25.288;2023-07-30T04:00:39;95925.88;;;15.69;69.70
50394;BME280;36308;46.312;25.288;2023-07-30T04:03:04;95929.41;;;15.70;69.60
50394;BME280;36308;46.312;25.288;2023-07-30T04:05:30;95930.19;;;15.70;69.47
50394;BME280;36308;46.312;25.288;2023-07-30T04:07:56;95927.22;;;15.72;69.81
50394;BME280;36308;46.312;25.288;2023-07-30T04:10:21;95924.22;;;15.73;69.99
50394;BME280;36308;46.312;25.288;2023-07-30T04:12:47;95923.94;;;15.75;69.90
50394;BME280;36308;46.312;25.288;2023-07-30T04:15:14;95929.84;;;15.77;69.61
50394;BME280;36308;46.312;25.288;2023-07-30T04:17:40;95926.34;;;15.76;70.15
50394;BME280;36308;46.312;25.288;2023-07-30T04:20:06;95921.44;;;15.79;69.78
50394;BME280;36308;46.312;25.288;2023-07-30T04:22:32;95930.88;;;15.81;70.01
50394;BME280;36308;46.312;25.288;2023-07-30T04:24:58;95924.09;;;15.84;70.25
50394;BME280;36308;46.312;25.288;2023-07-30T04:27:23;95920.25;;;15.85;70.51
50394;BME280;36308;46.312;25.288;2023-07-30T04:29:49;95913.16;;;15.89;70.29
50394;BME280;36308;46.312;25.288;2023-07-30T04:32:14;95913.66;;;15.91;70.76
50394;BME280;36308;46.312;25.288;2023-07-30T04:34:40;95919.03;;;15.96;71.01
50394;BME280;36308;46.312;25.288;2023-07-30T04:37:05;95920.06;;;16.00;70.63
50394;BME280;36308;46.312;25.288;2023-07-30T04:39:35;95930.81;;;16.05;71.23
50394;BME280;36308;46.312;25.288;2023-07-30T04:42:01;95924.19;;;16.11;70.72
50394;BME280;36308;46.312;25.288;2023-07-30T04:44:27;95930.66;;;16.15;71.05
50394;BME280;36308;46.312;25.288;2023-07-30T04:46:53;95938.69;;;16.21;71.20
50394;BME280;36308;46.312;25.288;2023-07-30T04:49:18;95939.72;;;16.25;70.80
50394;BME280;36308;46.312;25.288;2023-07-30T04:51:44;95946.66;;;16.31;70.71
50394;BME280;36308;46.312;25.288;2023-07-30T04:54:09;95939.53;;;16.35;70.59
50394;BME280;36308;46.312;25.288;2023-07-30T04:56:36;95950.03;;;16.42;70.45
50394;BME280;36308;46.312;25.288;2023-07-30T04:59:02;95953.78;;;16.46;70.63
50394;BME280;36308;46.312;25.288;2023-07-30T05:01:27;95963.44;;;16.52;70.10
50394;BME280;36308;46.312;25.288;2023-07-30T05:03:53;95960.91;;;16.55;70.27
50394;BME280;36308;46.312;25.288;2023-07-30T05:06:19;95959.72;;;16.62;69.95
50394;BME280;36308;46.312;25.288;2023-07-30T05:08:44;95961.53;;;16.66;70.20
50394;BME280;36308;46.312;25.288;2023-07-30T05:11:10;95963.38;;;16.71;69.89
50394;BME280;36308;46.312;25.288;2023-07-30T05:13:35;95958.66;;;16.76;69.89
50394;BME280;36308;46.312;25.288;2023-07-30T05:16:01;95953.97;;;16.82;70.00
50394;BME280;36308;46.312;25.288;2023-07-30T05:18:27;95950.84;;;16.89;69.87
50394;BME280;36308;46.312;25.288;2023-07-30T05:20:53;95964.06;;;16.95;69.51
50394;BME280;36308;46.312;25.288;2023-07-30T05:23:19;95963.38;;;17.04;69.73
50394;BME280;36308;46.312;25.288;2023-07-30T05:25:45;95944.44;;;17.12;69.57
50394;BME280;36308;46.312;25.288;2023-07-30T05:28:11;95948.06;;;17.22;69.02
50394;BME280;36308;46.312;25.288;2023-07-30T05:30:37;95949.78;;;17.31;69.25
50394;BME280;36308;46.312;25.288;2023-07-30T05:33:02;95947.94;;;17.41;68.84
50394;BME280;36308;46.312;25.288;2023-07-30T05:35:28;95946.44;;;17.48;69.13
50394;BME280;36308;46.312;25.288;2023-07-30T05:37:53;95946.53;;;17.57;68.62
50394;BME280;36308;46.312;25.288;2023-07-30T05:40:19;95947.44;;;17.66;68.33
50394;BME280;36308;46.312;25.288;2023-07-30T05:42:44;95956.47;;;17.75;68.29
50394;BME280;36308;46.312;25.288;2023-07-30T05:45:10;95951.13;;;17.84;68.19
50394;BME280;36308;46.312;25.288;2023-07-30T05:47:36;95951.22;;;17.93;68.06
50394;BME280;36308;46.312;25.288;2023-07-30T05:50:02;95953.69;;;18.03;67.79
50394;BME280;36308;46.312;25.288;2023-07-30T05:52:28;95953.47;;;18.13;67.41
50394;BME280;36308;46.312;25.288;2023-07-30T05:54:53;95954.34;;;18.23;67.50
50394;BME280;36308;46.312;25.288;2023-07-30T05:57:19;95947.53;;;18.34;67.20
50394;BME280;36308;46.312;25.288;2023-07-30T05:59:44;95943.47;;;18.45;67.34
50394;BME280;36308;46.312;25.288;2023-07-30T06:02:09;95944.81;;;18.56;67.12
50394;BME280;36308;46.312;25.288;2023-07-30T06:04:35;95940.25;;;18.66;67.07
50394;BME280;36308;46.312;25.288;2023-07-30T06:07:02;95941.56;;;18.77;66.70
50394;BME280;36308;46.312;25.288;2023-07-30T06:09:28;95944.06;;;18.87;66.37
50394;BME280;36308;46.312;25.288;2023-07-30T06:11:55;95936.09;;;19.00;66.62
50394;BME280;36308;46.312;25.288;2023-07-30T06:14:20;95933.59;;;19.12;66.29
50394;BME280;36308;46.312;25.288;2023-07-30T06:16:46;95937.63;;;19.23;66.06
50394;BME280;36308;46.312;25.288;2023-07-30T06:19:11;95936.25;;;19.34;65.51
50394;BME280;36308;46.312;25.288;2023-07-30T06:21:36;95939.16;;;19.47;65.47
50394;BME280;36308;46.312;25.288;2023-07-30T06:24:02;95937.72;;;19.58;65.53
50394;BME280;36308;46.312;25.288;2023-07-30T06:26:28;95937.94;;;19.70;65.37
50394;BME280;36308;46.312;25.288;2023-07-30T06:28:53;95930.56;;;19.79;65.02
50394;BME280;36308;46.312;25.288;2023-07-30T06:31:19;95931.09;;;19.90;64.90
50394;BME280;36308;46.312;25.288;2023-07-30T06:33:44;95933.81;;;19.99;64.72
50394;BME280;36308;46.312;25.288;2023-07-30T06:36:10;95924.50;;;20.09;64.86
50394;BME280;36308;46.312;25.288;2023-07-30T06:38:35;95933.16;;;20.19;64.51
50394;BME280;36308;46.312;25.288;2023-07-30T06:41:01;95930.75;;;20.27;64.35
50394;BME280;36308;46.312;25.288;2023-07-30T06:43:26;95926.09;;;20.36;63.94
50394;BME280;36308;46.312;25.288;2023-07-30T06:45:53;95926.41;;;20.43;63.71
50394;BME280;36308;46.312;25.288;2023-07-30T06:48:19;95928.31;;;20.51;63.59
50394;BME280;36308;46.312;25.288;2023-07-30T06:50:45;95920.59;;;20.62;63.28
50394;BME280;36308;46.312;25.288;2023-07-30T06:53:11;95920.56;;;20.71;63.14
50394;BME280;36308;46.312;25.288;2023-07-30T06:55:36;95916.22;;;20.78;62.96
50394;BME280;36308;46.312;25.288;2023-07-30T06:58:02;95911.88;;;20.86;62.90
50394;BME280;36308;46.312;25.288;2023-07-30T07:00:27;95912.16;;;20.93;63.01
50394;BME280;36308;46.312;25.288;2023-07-30T07:02:53;95908.28;;;21.03;62.99
50394;BME280;36308;46.312;25.288;2023-07-30T07:05:18;95909.84;;;21.13;62.96
50394;BME280;36308;46.312;25.288;2023-07-30T07:07:44;95909.47;;;21.23;62.79
50394;BME280;36308;46.312;25.288;2023-07-30T07:10:10;95904.44;;;21.34;62.98
50394;BME280;36308;46.312;25.288;2023-07-30T07:12:36;95904.88;;;21.45;62.90
50394;BME280;36308;46.312;25.288;2023-07-30T07:15:03;95907.72;;;21.57;62.78
50394;BME280;36308;46.312;25.288;2023-07-30T07:17:29;95899.59;;;21.69;62.66
50394;BME280;36308;46.312;25.288;2023-07-30T07:19:54;95899.34;;;21.83;62.62
50394;BME280;36308;46.312;25.288;2023-07-30T07:22:20;95901.31;;;21.95;62.55
50394;BME280;36308;46.312;25.288;2023-07-30T07:24:46;95905.72;;;22.08;62.13
50394;BME280;36308;46.312;25.288;2023-07-30T07:27:11;95898.38;;;22.21;62.29
50394;BME280;36308;46.312;25.288;2023-07-30T07:29:37;95903.56;;;22.35;62.31
50394;BME280;36308;46.312;25.288;2023-07-30T07:32:03;95900.88;;;22.47;62.07
50394;BME280;36308;46.312;25.288;2023-07-30T07:34:28;95903.66;;;22.59;61.57
50394;BME280;36308;46.312;25.288;2023-07-30T07:36:54;95897.09;;;22.73;61.07
50394;BME280;36308;46.312;25.288;2023-07-30T07:39:20;95895.03;;;22.82;60.83
50394;BME280;36308;46.312;25.288;2023-07-30T07:41:45;95890.81;;;22.97;60.31
50394;BME280;36308;46.312;25.288;2023-07-30T07:44:11;95894.78;;;23.08;59.67
50394;BME280;36308;46.312;25.288;2023-07-30T07:46:36;95883.00;;;23.20;59.71
50394;BME280;36308;46.312;25.288;2023-07-30T07:49:02;95888.13;;;23.34;59.50
50394;BME280;36308;46.312;25.288;2023-07-30T07:51:27;95884.59;;;23.46;59.11
50394;BME280;36308;46.312;25.288;2023-07-30T07:53:53;95883.09;;;23.60;58.71
50394;BME280;36308;46.312;25.288;2023-07-30T07:56:18;95887.06;;;23.75;58.69
50394;BME280;36308;46.312;25.288;2023-07-30T07:58:44;95887.53;;;23.90;58.57
50394;BME280;36308;46.312;25.288;2023-07-30T08:01:09;95884.06;;;24.05;58.24
50394;BME280;36308;46.312;25.288;2023-07-30T08:03:35;95886.75;;;24.17;58.21
50394;BME280;36308;46.312;25.288;2023-07-30T08:06:00;95882.34;;;24.29;58.05
50394;BME280;36308;46.312;25.288;2023-07-30T08:08:26;95892.69;;;24.48;57.63
50394;BME280;36308;46.312;25.288;2023-07-30T08:10:52;95885.66;;;24.63;55.98
50394;BME280;36308;46.312;25.288;2023-07-30T08:13:18;95889.94;;;24.76;55.62
50394;BME280;36308;46.312;25.288;2023-07-30T08:15:44;95890.66;;;24.89;55.15
50394;BME280;36308;46.312;25.288;2023-07-30T08:18:09;95897.66;;;25.02;55.06
50394;BME280;36308;46.312;25.288;2023-07-30T08:20:35;95894.84;;;25.14;55.44
50394;BME280;36308;46.312;25.288;2023-07-30T08:23:01;95890.78;;;25.24;54.31
50394;BME280;36308;46.312;25.288;2023-07-30T08:25:26;95880.03;;;25.35;54.71
50394;BME280;36308;46.312;25.288;2023-07-30T08:27:52;95886.22;;;25.48;55.04
50394;BME280;36308;46.312;25.288;2023-07-30T08:30:17;95878.63;;;25.60;54.32
50394;BME280;36308;46.312;25.288;2023-07-30T08:32:43;95866.28;;;25.70;53.72
50394;BME280;36308;46.312;25.288;2023-07-30T08:35:09;95881.94;;;25.86;52.86
50394;BME280;36308;46.312;25.288;2023-07-30T08:37:35;95876.34;;;25.98;52.38
50394;BME280;36308;46.312;25.288;2023-07-30T08:40:00;95882.44;;;26.07;52.15
50394;BME280;36308;46.312;25.288;2023-07-30T08:42:26;95887.09;;;26.23;51.69
50394;BME280;36308;46.312;25.288;2023-07-30T08:44:51;95880.72;;;26.38;50.77
50394;BME280;36308;46.312;25.288;2023-07-30T08:47:17;95883.31;;;26.50;50.79
50394;BME280;36308;46.312;25.288;2023-07-30T08:49:43;95876.94;;;26.66;50.77
50394;BME280;36308;46.312;25.288;2023-07-30T08:52:09;95879.50;;;26.78;50.42
50394;BME280;36308;46.312;25.288;2023-07-30T08:54:36;95885.66;;;26.91;50.50
50394;BME280;36308;46.312;25.288;2023-07-30T08:57:03;95883.88;;;27.02;50.38
50394;BME280;36308;46.312;25.288;2023-07-30T08:59:33;95888.03;;;27.15;50.22
50394;BME280;36308;46.312;25.288;2023-07-30T09:02:01;95890.28;;;27.29;50.00
50394;BME280;36308;46.312;25.288;2023-07-30T09:04:29;95884.56;;;27.41;49.35
50394;BME280;36308;46.312;25.288;2023-07-30T09:07:00;95880.03;;;27.56;49.11
50394;BME280;36308;46.312;25.288;2023-07-30T09:09:25;95887.69;;;27.67;48.91
50394;BME280;36308;46.312;25.288;2023-07-30T09:11:55;95883.91;;;27.78;49.54
50394;BME280;36308;46.312;25.288;2023-07-30T09:14:20;95875.84;;;27.93;49.55
50394;BME280;36308;46.312;25.288;2023-07-30T09:16:46;95878.44;;;28.09;49.50
50394;BME280;36308;46.312;25.288;2023-07-30T09:19:16;95867.59;;;28.27;49.70
50394;BME280;36308;46.312;25.288;2023-07-30T09:21:42;95874.47;;;28.40;49.27
50394;BME280;36308;46.312;25.288;2023-07-30T09:24:08;95876.63;;;28.54;49.41
50394;BME280;36308;46.312;25.288;2023-07-30T09:26:47;95862.56;;;28.70;48.93
50394;BME280;36308;46.312;25.288;2023-07-30T09:29:14;95866.72;;;28.90;47.88
50394;BME280;36308;46.312;25.288;2023-07-30T09:31:50;95860.56;;;29.08;47.79
50394;BME280;36308;46.312;25.288;2023-07-30T09:34:18;95865.47;;;29.25;47.42
50394;BME280;36308;46.312;25.288;2023-07-30T09:36:45;95856.06;;;29.40;46.62
50394;BME280;36308;46.312;25.288;2023-07-30T09:39:23;95862.53;;;29.59;46.28
50394;BME280;36308;46.312;25.288;2023-07-30T09:41:50;95857.94;;;29.74;45.42
50394;BME280;36308;46.312;25.288;2023-07-30T09:44:20;95848.47;;;29.86;45.04
50394;BME280;36308;46.312;25.288;2023-07-30T09:46:49;95844.63;;;30.01;44.63
50394;BME280;36308;46.312;25.288;2023-07-30T09:49:16;95831.22;;;30.17;44.31
50394;BME280;36308;46.312;25.288;2023-07-30T09:51:42;95835.25;;;30.31;43.45
50394;BME280;36308;46.312;25.288;2023-07-30T09:54:09;95824.19;;;30.45;43.52
50394;BME280;36308;46.312;25.288;2023-07-30T09:56:36;95822.63;;;30.62;42.62
50394;BME280;36308;46.312;25.288;2023-07-30T09:59:02;95818.72;;;30.74;41.94
50394;BME280;36308;46.312;25.288;2023-07-30T10:01:29;95827.44;;;30.87;42.34
50394;BME280;36308;46.312;25.288;2023-07-30T10:03:56;95811.59;;;31.01;42.06
50394;BME280;36308;46.312;25.288;2023-07-30T10:06:25;95815.19;;;31.20;41.64
50394;BME280;36308;46.312;25.288;2023-07-30T10:08:53;95802.06;;;31.38;40.72
50394;BME280;36308;46.312;25.288;2023-07-30T10:11:20;95801.25;;;31.52;40.10
50394;BME280;36308;46.312;25.288;2023-07-30T10:13:46;95802.81;;;31.68;40.11
50394;BME280;36308;46.312;25.288;2023-07-30T10:16:12;95801.19;;;31.85;40.87
50394;BME280;36308;46.312;25.288;2023-07-30T10:18:39;95808.28;;;32.00;40.46
50394;BME280;36308;46.312;25.288;2023-07-30T10:21:08;95797.94;;;32.11;39.92
50394;BME280;36308;46.312;25.288;2023-07-30T10:26:33;95792.31;;;32.26;40.06
50394;BME280;36308;46.312;25.288;2023-07-30T10:29:19;95790.63;;;32.39;39.48
50394;BME280;36308;46.312;25.288;2023-07-30T10:31:52;95788.19;;;32.55;38.90
50394;BME280;36308;46.312;25.288;2023-07-30T10:34:18;95780.56;;;32.67;38.88
50394;BME280;36308;46.312;25.288;2023-07-30T10:36:46;95779.72;;;32.73;37.77
50394;BME280;36308;46.312;25.288;2023-07-30T10:39:19;95778.47;;;32.78;38.07
50394;BME280;36308;46.312;25.288;2023-07-30T10:41:50;95776.06;;;32.84;38.12
50394;BME280;36308;46.312;25.288;2023-07-30T10:46:44;95768.75;;;33.00;38.70
50394;BME280;36308;46.312;25.288;2023-07-30T10:49:10;95772.66;;;33.14;37.48
50394;BME280;36308;46.312;25.288;2023-07-30T10:51:37;95763.84;;;33.19;37.16
50394;BME280;36308;46.312;25.288;2023-07-30T10:54:06;95774.09;;;33.29;37.05
50394;BME280;36308;46.312;25.288;2023-07-30T10:56:34;95767.66;;;33.36;36.58
50394;BME280;36308;46.312;25.288;2023-07-30T10:59:03;95756.50;;;33.39;36.55
50394;BME280;36308;46.312;25.288;2023-07-30T11:01:30;95756.06;;;33.41;36.59
50394;BME280;36308;46.312;25.288;2023-07-30T11:03:56;95759.59;;;33.45;36.97
50394;BME280;36308;46.312;25.288;2023-07-30T11:06:25;95753.19;;;33.52;35.98
50394;BME280;36308;46.312;25.288;2023-07-30T11:08:51;95757.91;;;33.55;35.78
50394;BME280;36308;46.312;25.288;2023-07-30T11:11:17;95752.31;;;33.62;36.26
50394;BME280;36308;46.312;25.288;2023-07-30T11:13:44;95744.22;;;33.71;36.02
50394;BME280;36308;46.312;25.288;2023-07-30T11:16:14;95750.88;;;33.81;36.22
50394;BME280;36308;46.312;25.288;2023-07-30T11:18:41;95751.16;;;33.90;36.63
50394;BME280;36308;46.312;25.288;2023-07-30T11:21:12;95739.94;;;33.97;36.00
50394;BME280;36308;46.312;25.288;2023-07-30T11:23:39;95741.50;;;33.98;35.83
50394;BME280;36308;46.312;25.288;2023-07-30T11:26:07;95739.97;;;33.94;35.84
50394;BME280;36308;46.312;25.288;2023-07-30T11:28:35;95751.56;;;33.89;36.14
50394;BME280;36308;46.312;25.288;2023-07-30T11:31:03;95752.81;;;33.84;35.81
50394;BME280;36308;46.312;25.288;2023-07-30T11:33:30;95748.91;;;33.78;36.01
50394;BME280;36308;46.312;25.288;2023-07-30T11:35:56;95747.38;;;33.73;35.93
50394;BME280;36308;46.312;25.288;2023-07-30T11:38:26;95749.06;;;33.67;35.47
50394;BME280;36308;46.312;25.288;2023-07-30T11:40:53;95743.94;;;33.62;35.82
50394;BME280;36308;46.312;25.288;2023-07-30T11:43:22;95745.94;;;33.58;35.69
50394;BME280;36308;46.312;25.288;2023-07-30T11:45:49;95735.63;;;33.55;35.91
50394;BME280;36308;46.312;25.288;2023-07-30T11:48:30;95736.47;;;33.52;35.98
50394;BME280;36308;46.312;25.288;2023-07-30T11:50:56;95735.63;;;33.55;36.11
50394;BME280;36308;46.312;25.288;2023-07-30T11:53:21;95730.03;;;33.55;35.97
50394;BME280;36308;46.312;25.288;2023-07-30T11:56:30;95730.41;;;33.57;35.61
50394;BME280;36308;46.312;25.288;2023-07-30T11:59:02;95733.59;;;33.63;35.27
50394;BME280;36308;46.312;25.288;2023-07-30T12:01:30;95729.16;;;33.65;35.61
50394;BME280;36308;46.312;25.288;2023-07-30T12:03:58;95733.91;;;33.68;35.63
50394;BME280;36308;46.312;25.288;2023-07-30T12:06:38;95730.31;;;33.68;35.49
50394;BME280;36308;46.312;25.288;2023-07-30T12:09:12;95717.97;;;33.69;35.53
50394;BME280;36308;46.312;25.288;2023-07-30T12:12:04;95723.50;;;33.72;35.62
50394;BME280;36308;46.312;25.288;2023-07-30T12:17:14;95713.75;;;33.88;34.04
50394;BME280;36308;46.312;25.288;2023-07-30T12:19:41;95709.72;;;33.92;34.15
50394;BME280;36308;46.312;25.288;2023-07-30T12:22:06;95708.03;;;33.98;33.50
50394;BME280;36308;46.312;25.288;2023-07-30T12:24:32;95702.78;;;34.04;33.36
50394;BME280;36308;46.312;25.288;2023-07-30T12:26:59;95694.41;;;34.04;33.66
50394;BME280;36308;46.312;25.288;2023-07-30T12:29:25;95692.03;;;34.02;33.20
50394;BME280;36308;46.312;25.288;2023-07-30T12:31:51;95697.28;;;33.97;32.98
50394;BME280;36308;46.312;25.288;2023-07-30T12:34:22;95685.75;;;33.95;33.50
50394;BME280;36308;46.312;25.288;2023-07-30T12:36:48;95693.69;;;34.00;33.86
50394;BME280;36308;46.312;25.288;2023-07-30T12:39:13;95684.81;;;34.05;34.05
50394;BME280;36308;46.312;25.288;2023-07-30T12:41:39;95684.00;;;34.08;34.04
50394;BME280;36308;46.312;25.288;2023-07-30T12:44:04;95678.34;;;34.15;33.49
50394;BME280;36308;46.312;25.288;2023-07-30T12:46:30;95680.66;;;34.20;33.11
50394;BME280;36308;46.312;25.288;2023-07-30T12:48:58;95677.03;;;34.24;33.66
50394;BME280;36308;46.312;25.288;2023-07-30T12:51:27;95682.88;;;34.33;33.88
50394;BME280;36308;46.312;25.288;2023-07-30T12:53:53;95675.13;;;34.44;33.37
50394;BME280;36308;46.312;25.288;2023-07-30T12:56:18;95682.66;;;34.47;32.39